Time;durP1;ratioP1;P1;durP2;ratioP2;P2;SDS_P1;SDS_P2;PMS_P1;PMS_P2;Temp;Humidity;BMP_temperature;BMP_pressure;BME280_temperature;BME280_humidity;BME280_pressure;Samples;Min_cycle;Max_cycle;Signal;HPM_P1;HPM_P2
2021/09/09 00:01:03;;;;;;;1112.33;806.43;;;18.00;95.90;;;;;;5043034;28;20464;-68
2021/09/09 00:03:30;;;;;;;758.30;525.53;;;18.10;95.10;;;;;;5049375;28;20439;-68
2021/09/09 00:05:57;;;;;;;788.43;560.17;;;18.30;94.60;;;;;;5053970;28;20464;-67
2021/09/09 00:08:25;;;;;;;500.47;324.70;;;18.40;94.30;;;;;;5053526;28;20415;-68
2021/09/09 00:10:52;;;;;;;1126.80;818.50;;;18.40;93.90;;;;;;5043172;28;20419;-67
2021/09/09 00:13:20;;;;;;;769.67;537.07;;;18.20;93.50;;;;;;5053310;28;20425;-67
2021/09/09 00:15:48;;;;;;;799.10;563.10;;;18.10;93.00;;;;;;5053026;28;20432;-69
2021/09/09 00:18:15;;;;;;;34.37;10.67;;;18.30;92.70;;;;;;5052277;28;20440;-68
2021/09/09 00:20:43;;;;;;;1127.20;817.27;;;18.40;92.50;;;;;;5053201;28;20568;-68
2021/09/09 00:23:10;;;;;;;1143.70;829.67;;;18.50;91.70;;;;;;5054962;28;20443;-69
2021/09/09 00:25:37;;;;;;;802.80;562.90;;;18.50;91.50;;;;;;5068140;28;20456;-68
2021/09/09 00:28:06;;;;;;;802.10;562.30;;;18.60;90.90;;;;;;5059419;28;20926;-69
2021/09/09 00:30:33;;;;;;;779.83;550.87;;;18.90;89.70;;;;;;5051534;28;20440;-70
2021/09/09 00:33:01;;;;;;;786.37;554.37;;;19.10;87.40;;;;;;5052686;28;20427;-70
2021/09/09 00:35:28;;;;;;;797.17;557.13;;;19.20;85.60;;;;;;5053502;28;20428;-69
2021/09/09 00:37:56;;;;;;;765.17;546.07;;;19.40;85.30;;;;;;5049530;28;20930;-68
2021/09/09 00:40:23;;;;;;;1037.73;771.97;;;19.60;84.00;;;;;;5052341;28;20424;-68
2021/09/09 00:42:50;;;;;;;714.47;523.03;;;19.70;82.50;;;;;;5051721;28;20452;-68
2021/09/09 00:45:18;;;;;;;702.67;515.33;;;19.90;81.60;;;;;;5053162;28;20554;-70
2021/09/09 00:47:45;;;;;;;978.97;742.67;;;19.70;81.20;;;;;;5053250;28;20461;-69
2021/09/09 00:50:13;;;;;;;974.57;735.47;;;19.90;80.30;;;;;;5052356;28;20420;-69
2021/09/09 00:52:48;;;;;;;991.03;763.37;;;20.10;80.90;;;;;;5044361;28;20432;-69
2021/09/09 00:55:16;;;;;;;987.83;751.83;;;20.00;79.90;;;;;;5045850;28;20497;-69
2021/09/09 00:57:45;;;;;;;722.57;538.03;;;19.90;80.20;;;;;;5050927;28;20862;-68
2021/09/09 01:00:14;;;;;;;983.83;749.50;;;20.20;81.30;;;;;;5051568;28;21010;-70
2021/09/09 01:02:41;;;;;;;983.27;749.67;;;20.30;79.70;;;;;;5052088;28;20477;-70
2021/09/09 01:05:09;;;;;;;993.93;760.10;;;20.30;79.80;;;;;;5052599;28;20622;-69
2021/09/09 01:07:41;;;;;;;997.53;765.53;;;20.40;78.70;;;;;;5053320;28;20445;-68
2021/09/09 01:10:08;;;;;;;691.10;520.87;;;20.40;79.10;;;;;;5052240;28;20491;-69
2021/09/09 01:12:36;;;;;;;968.60;739.57;;;20.50;77.40;;;;;;5043203;28;21024;-70
2021/09/09 01:15:05;;;;;;;689.80;512.00;;;20.50;75.60;;;;;;5048099;28;20420;-70
2021/09/09 01:17:32;;;;;;;963.07;731.67;;;20.50;75.30;;;;;;5047816;28;20974;-69
2021/09/09 01:20:00;;;;;;;965.77;739.00;;;20.60;73.90;;;;;;5047726;28;20528;-68
2021/09/09 01:22:27;;;;;;;958.63;721.87;;;20.70;72.40;;;;;;5036732;28;20417;-69
2021/09/09 01:24:55;;;;;;;965.87;738.17;;;21.00;71.90;;;;;;5048665;28;20560;-68
2021/09/09 01:27:22;;;;;;;968.03;737.93;;;21.30;72.40;;;;;;5036660;28;20433;-68
2021/09/09 01:29:50;;;;;;;958.53;727.93;;;21.60;69.90;;;;;;5052372;28;20416;-68
2021/09/09 01:32:18;;;;;;;963.77;727.97;;;21.80;71.00;;;;;;5051607;28;20470;-70
2021/09/09 01:34:45;;;;;;;955.70;719.33;;;21.90;70.10;;;;;;5034001;28;20418;-69
2021/09/09 01:37:13;;;;;;;956.70;722.77;;;21.90;71.40;;;;;;5052884;28;20467;-69
2021/09/09 01:39:44;;;;;;;960.10;731.17;;;22.10;69.50;;;;;;5040689;28;20517;-69
2021/09/09 01:42:12;;;;;;;958.07;733.17;;;22.10;69.10;;;;;;5044408;28;20479;-69
2021/09/09 01:44:39;;;;;;;662.43;495.57;;;22.20;68.20;;;;;;5052360;28;20405;-69
2021/09/09 01:47:07;;;;;;;955.83;726.50;;;22.20;67.30;;;;;;5052470;28;20190;-68
2021/09/09 01:49:35;;;;;;;948.57;717.07;;;22.50;66.90;;;;;;5052647;28;20451;-68
2021/09/09 01:52:02;;;;;;;956.03;736.60;;;22.50;65.40;;;;;;5049033;28;20470;-68
2021/09/09 01:54:29;;;;;;;957.37;736.57;;;22.50;65.30;;;;;;5051063;28;20444;-68
2021/09/09 01:56:57;;;;;;;955.70;733.40;;;22.50;65.10;;;;;;5052774;28;20417;-69
2021/09/09 01:59:24;;;;;;;956.23;734.50;;;22.70;65.90;;;;;;5052758;28;20178;-68
2021/09/09 02:01:53;;;;;;;958.93;744.80;;;22.80;65.60;;;;;;5052410;28;20740;-70
2021/09/09 02:04:20;;;;;;;961.20;749.33;;;22.90;64.40;;;;;;5042400;28;20442;-68
2021/09/09 02:06:48;;;;;;;955.30;721.10;;;22.90;63.90;;;;;;5049656;28;20219;-69
2021/09/09 02:09:15;;;;;;;955.43;730.73;;;23.10;62.70;;;;;;5043343;28;20234;-72
2021/09/09 02:11:42;;;;;;;955.73;731.17;;;23.50;60.70;;;;;;5043023;28;20172;-68
2021/09/09 02:14:10;;;;;;;958.60;742.33;;;23.90;57.80;;;;;;5057408;28;20623;-69
2021/09/09 02:16:37;;;;;;;965.33;754.70;;;24.10;58.60;;;;;;5052299;28;20172;-69
2021/09/09 02:19:04;;;;;;;970.60;767.83;;;24.50;58.10;;;;;;5052286;28;20211;-70
2021/09/09 02:21:33;;;;;;;977.90;782.03;;;25.00;56.70;;;;;;5052048;28;20195;-67
2021/09/09 02:24:00;;;;;;;974.03;781.23;;;25.10;56.50;;;;;;5051910;28;20195;-68
2021/09/09 02:26:27;;;;;;;977.30;782.40;;;25.20;55.90;;;;;;5051220;28;20200;-68
2021/09/09 02:28:55;;;;;;;977.53;786.07;;;25.60;54.00;;;;;;5047644;28;20191;-68
2021/09/09 02:31:22;;;;;;;979.73;790.00;;;25.80;52.20;;;;;;5051870;28;20242;-68
2021/09/09 02:33:49;;;;;;;982.13;794.13;;;26.20;52.90;;;;;;5051885;28;20175;-69
2021/09/09 02:36:17;;;;;;;986.10;804.07;;;26.60;51.60;;;;;;5051953;28;20566;-69
2021/09/09 02:38:44;;;;;;;990.10;815.40;;;26.60;49.50;;;;;;5051498;28;20164;-69
2021/09/09 02:41:11;;;;;;;987.87;812.50;;;26.70;50.80;;;;;;5052208;28;20225;-70
2021/09/09 02:43:39;;;;;;;994.77;823.43;;;27.10;49.10;;;;;;5055101;28;20220;-69
2021/09/09 02:46:06;;;;;;;997.53;832.20;;;27.30;48.60;;;;;;5054858;28;20293;-69
2021/09/09 02:48:33;;;;;;;999.97;833.07;;;27.70;47.30;;;;;;5054192;28;20176;-69
2021/09/09 02:51:01;;;;;;;999.97;842.67;;;27.60;47.40;;;;;;5050211;28;20187;-67
2021/09/09 02:53:28;;;;;;;1005.03;851.73;;;27.80;46.30;;;;;;5054933;28;20188;-71
2021/09/09 02:55:55;;;;;;;1010.30;847.93;;;28.00;45.50;;;;;;5042592;28;20184;-69
2021/09/09 02:58:22;;;;;;;1000.33;845.50;;;27.90;45.30;;;;;;5053909;28;20268;-69
2021/09/09 03:00:50;;;;;;;1009.33;856.07;;;27.40;44.90;;;;;;5052652;28;20223;-70
2021/09/09 03:03:20;;;;;;;1008.83;857.63;;;28.00;45.50;;;;;;5053475;28;20191;-69
2021/09/09 03:05:47;;;;;;;1012.53;866.47;;;28.20;45.70;;;;;;5053945;28;20642;-70
2021/09/09 03:08:15;;;;;;;1010.73;866.57;;;28.60;44.80;;;;;;5055111;28;20180;-69
2021/09/09 03:10:42;;;;;;;1005.83;857.93;;;28.70;42.40;;;;;;5055080;28;20215;-69
2021/09/09 03:13:10;;;;;;;1012.60;872.63;;;28.60;42.70;;;;;;5047996;28;20271;-68
2021/09/09 03:15:37;;;;;;;1007.90;864.60;;;28.60;42.70;;;;;;5053633;28;20168;-68
2021/09/09 03:18:04;;;;;;;1008.07;862.03;;;28.60;42.80;;;;;;5066021;28;20192;-67
2021/09/09 03:20:32;;;;;;;1006.73;862.23;;;28.60;42.80;;;;;;5054506;28;20187;-69
2021/09/09 03:22:59;;;;;;;1011.10;873.23;;;28.70;44.40;;;;;;5054023;28;20182;-69
2021/09/09 03:25:26;;;;;;;1011.87;874.30;;;29.10;42.90;;;;;;5054996;28;20196;-69
2021/09/09 03:27:54;;;;;;;1012.80;873.13;;;28.60;43.30;;;;;;5054119;28;20216;-69
2021/09/09 03:30:21;;;;;;;1007.80;862.10;;;28.80;43.90;;;;;;5053441;28;20230;-67
2021/09/09 03:32:48;;;;;;;1014.80;871.37;;;29.00;43.30;;;;;;5054267;28;20194;-71
2021/09/09 03:35:16;;;;;;;1019.13;883.13;;;29.30;43.60;;;;;;5054140;28;20176;-68
2021/09/09 03:37:43;;;;;;;1026.53;890.60;;;29.60;43.60;;;;;;5052389;28;20184;-69
2021/09/09 03:40:11;;;;;;;1022.50;886.20;;;29.50;43.40;;;;;;5052174;28;20816;-69
2021/09/09 03:42:39;;;;;;;1021.57;881.67;;;28.80;42.80;;;;;;5051332;28;20262;-69
2021/09/09 03:45:12;;;;;;;1025.27;892.93;;;28.80;44.10;;;;;;5054807;28;20245;-70
2021/09/09 03:47:39;;;;;;;1022.17;885.73;;;28.80;44.60;;;;;;5054701;28;20199;-69
2021/09/09 03:50:07;;;;;;;1019.43;883.37;;;28.90;45.20;;;;;;5055167;28;20172;-70
2021/09/09 03:52:34;;;;;;;1029.97;899.53;;;29.20;44.40;;;;;;5050303;28;20194;-69
2021/09/09 03:55:02;;;;;;;1027.50;894.57;;;29.00;44.40;;;;;;5051784;28;20184;-69
2021/09/09 03:57:29;;;;;;;1023.97;884.83;;;29.00;45.10;;;;;;5063277;28;20202;-69
2021/09/09 03:59:57;;;;;;;1030.50;895.73;;;29.20;45.10;;;;;;5052686;28;20271;-68
2021/09/09 04:02:24;;;;;;;1028.67;879.73;;;29.00;45.10;;;;;;5051176;28;20231;-69
2021/09/09 04:04:52;;;;;;;1026.57;887.30;;;28.90;45.30;;;;;;5052696;28;20184;-68
2021/09/09 04:07:19;;;;;;;1027.37;883.60;;;29.10;45.40;;;;;;5053811;28;20263;-71
2021/09/09 04:09:46;;;;;;;1035.30;903.77;;;29.00;45.60;;;;;;5052943;28;20208;-70
2021/09/09 04:12:14;;;;;;;1034.83;905.23;;;29.20;45.50;;;;;;5052643;28;20619;-71
2021/09/09 04:14:41;;;;;;;1047.10;906.93;;;29.50;45.40;;;;;;5053354;28;20594;-70
2021/09/09 04:17:10;;;;;;;1035.53;898.00;;;29.10;45.20;;;;;;5051921;28;20230;-73
2021/09/09 04:19:37;;;;;;;1043.10;908.13;;;29.80;44.80;;;;;;5046413;28;20184;-70
2021/09/09 04:22:08;;;;;;;1040.60;923.83;;;30.50;44.90;;;;;;5049166;28;20172;-69
2021/09/09 04:24:36;;;;;;;1058.80;941.93;;;30.80;44.40;;;;;;5052175;28;20286;-67
2021/09/09 04:27:04;;;;;;;1056.27;939.57;;;31.20;43.40;;;;;;5050616;28;20207;-68
2021/09/09 04:29:32;;;;;;;1051.57;935.77;;;31.00;44.40;;;;;;5045741;28;20184;-70
2021/09/09 04:31:59;;;;;;;1064.70;947.43;;;31.10;44.00;;;;;;5053056;28;20180;-71
2021/09/09 04:34:26;;;;;;;1053.87;937.73;;;30.90;43.80;;;;;;5052019;28;20245;-70
2021/09/09 04:36:54;;;;;;;1059.17;942.87;;;31.10;44.10;;;;;;5051488;28;20176;-71
2021/09/09 04:39:21;;;;;;;1076.10;958.63;;;31.60;44.20;;;;;;5052759;28;20190;-71
2021/09/09 04:41:48;;;;;;;1083.60;965.77;;;32.00;43.80;;;;;;5049447;28;20184;-70
2021/09/09 04:44:16;;;;;;;1084.60;966.50;;;32.10;42.90;;;;;;5052594;28;20702;-70
2021/09/09 04:46:43;;;;;;;1088.13;970.13;;;32.40;42.50;;;;;;5052588;28;20306;-71
2021/09/09 04:49:10;;;;;;;1089.43;970.87;;;32.60;42.40;;;;;;5051314;28;20555;-71
2021/09/09 04:51:38;;;;;;;1096.07;977.30;;;32.70;41.70;;;;;;5047207;28;20583;-74
2021/09/09 04:54:05;;;;;;;1099.93;980.97;;;32.30;42.20;;;;;;5046356;28;20176;-72
2021/09/09 04:56:32;;;;;;;1080.27;962.83;;;32.20;41.80;;;;;;5048975;28;20192;-71
2021/09/09 04:59:00;;;;;;;1080.10;962.07;;;32.20;42.40;;;;;;5050676;28;20271;-71
2021/09/09 05:01:27;;;;;;;1079.27;961.50;;;32.20;42.10;;;;;;5044065;28;20228;-71
2021/09/09 05:03:55;;;;;;;1092.43;973.93;;;32.50;42.40;;;;;;5050019;28;20242;-72
2021/09/09 05:06:22;;;;;;;1095.50;977.13;;;32.50;41.90;;;;;;5049523;28;20208;-71
2021/09/09 05:08:49;;;;;;;1089.67;971.80;;;32.50;41.10;;;;;;5049337;28;20211;-71
2021/09/09 05:11:17;;;;;;;1090.13;971.77;;;32.20;40.90;;;;;;5049609;28;20575;-70
2021/09/09 05:13:45;;;;;;;1081.17;963.43;;;32.20;41.20;;;;;;5050301;28;20267;-70
2021/09/09 05:16:13;;;;;;;1095.70;977.50;;;32.30;41.80;;;;;;5047818;28;20278;-69
2021/09/09 05:18:40;;;;;;;1089.97;972.00;;;32.30;41.30;;;;;;5051947;28;20183;-69
2021/09/09 05:21:07;;;;;;;1095.90;977.80;;;32.60;41.20;;;;;;5048993;28;20175;-69
2021/09/09 05:23:34;;;;;;;1094.70;976.47;;;32.80;40.00;;;;;;5049127;28;20188;-68
2021/09/09 05:26:02;;;;;;;1107.87;988.67;;;32.90;39.80;;;;;;5048812;28;20220;-69
2021/09/09 05:28:29;;;;;;;1106.80;987.57;;;33.00;39.60;;;;;;5045089;28;20175;-70
2021/09/09 05:30:57;;;;;;;1115.03;995.40;;;33.00;39.00;;;;;;5050298;28;20266;-71
2021/09/09 05:33:24;;;;;;;1117.10;996.63;;;32.90;39.80;;;;;;5050241;28;20857;-70
2021/09/09 05:35:51;;;;;;;1107.57;988.23;;;32.80;40.10;;;;;;5048440;28;20668;-69
2021/09/09 05:38:18;;;;;;;1104.60;985.40;;;32.60;40.20;;;;;;5053628;28;20230;-70
2021/09/09 05:40:50;;;;;;;1090.33;972.30;;;32.30;40.60;;;;;;5048457;28;20191;-71
2021/09/09 05:43:21;;;;;;;1083.67;966.33;;;32.50;40.00;;;;;;5061196;28;20206;-70
2021/09/09 05:45:48;;;;;;;1087.37;969.83;;;32.50;39.80;;;;;;5049269;28;20219;-71
2021/09/09 05:48:15;;;;;;;1094.20;976.27;;;32.60;39.70;;;;;;5048121;28;20538;-70
2021/09/09 05:50:43;;;;;;;1097.47;979.40;;;32.80;39.10;;;;;;5050317;28;20635;-70
2021/09/09 05:53:10;;;;;;;1097.10;979.03;;;32.70;39.50;;;;;;5052374;28;20273;-70
2021/09/09 05:55:37;;;;;;;1094.77;976.83;;;32.80;39.70;;;;;;5051244;28;20180;-70
2021/09/09 05:58:04;;;;;;;1086.10;969.00;;;32.50;37.70;;;;;;5069527;28;20179;-70
2021/09/09 06:00:32;;;;;;;1091.63;974.10;;;32.20;38.80;;;;;;5072491;28;20636;-68
2021/09/09 06:03:01;;;;;;;1085.00;967.53;;;32.20;37.60;;;;;;5059839;28;20226;-71
2021/09/09 06:05:29;;;;;;;1081.13;964.23;;;31.80;37.30;;;;;;5063993;28;20293;-69
2021/09/09 06:07:57;;;;;;;1071.03;954.20;;;31.20;37.70;;;;;;5070695;28;20190;-69
2021/09/09 06:10:25;;;;;;;1071.20;954.27;;;30.80;38.40;;;;;;5048156;28;20191;-70
2021/09/09 06:12:52;;;;;;;1068.73;952.30;;;30.40;39.00;;;;;;5052595;28;20192;-70
2021/09/09 06:15:19;;;;;;;1052.37;936.53;;;29.80;39.30;;;;;;5071085;28;20186;-71
2021/09/09 06:17:47;;;;;;;1047.33;931.87;;;29.70;39.70;;;;;;5062238;28;20183;-70
2021/09/09 06:20:15;;;;;;;1045.10;930.00;;;29.50;39.80;;;;;;5057737;28;20207;-71
2021/09/09 06:22:43;;;;;;;1032.10;912.77;;;29.30;39.90;;;;;;5053893;28;20267;-70
2021/09/09 06:25:11;;;;;;;1028.37;911.80;;;29.20;40.00;;;;;;5054216;28;20267;-72
2021/09/09 06:27:39;;;;;;;1042.00;927.00;;;29.30;40.20;;;;;;5076204;28;20195;-68
2021/09/09 06:30:07;;;;;;;1035.63;919.63;;;29.00;40.80;;;;;;5056280;28;20192;-70
2021/09/09 06:32:34;;;;;;;1021.90;897.70;;;29.10;41.30;;;;;;5056491;28;20654;-71
2021/09/09 06:35:02;;;;;;;1024.50;898.63;;;28.80;41.50;;;;;;5053123;28;20646;-65
2021/09/09 06:37:29;;;;;;;1020.07;891.67;;;28.50;41.70;;;;;;5066633;28;20655;-69
2021/09/09 06:39:57;;;;;;;1020.00;893.77;;;28.20;43.00;;;;;;5066460;28;20203;-67
2021/09/09 06:42:24;;;;;;;1017.93;882.33;;;28.00;42.70;;;;;;5073140;28;20175;-67
2021/09/09 06:44:51;;;;;;;1015.50;880.63;;;27.80;43.50;;;;;;5054695;28;20520;-67
2021/09/09 06:47:19;;;;;;;1012.73;884.03;;;27.60;43.20;;;;;;5060618;28;20176;-67
2021/09/09 06:49:46;;;;;;;1017.17;889.07;;;27.40;43.70;;;;;;5063099;28;20187;-67
2021/09/09 06:52:13;;;;;;;1016.10;886.47;;;27.20;44.30;;;;;;5055095;28;20187;-66
2021/09/09 06:54:41;;;;;;;1018.63;889.33;;;27.10;44.90;;;;;;5052261;28;20184;-67
2021/09/09 06:57:08;;;;;;;1011.67;875.43;;;26.90;45.10;;;;;;5044273;28;20233;-68
2021/09/09 06:59:35;;;;;;;1004.40;862.03;;;26.80;45.20;;;;;;5049831;28;20643;-67
2021/09/09 07:02:03;;;;;;;1005.90;858.60;;;26.60;45.30;;;;;;5053810;28;20271;-68
2021/09/09 07:04:30;;;;;;;998.63;848.07;;;26.50;45.50;;;;;;5053462;28;20180;-68
2021/09/09 07:06:58;;;;;;;998.07;842.73;;;26.40;44.30;;;;;;5050126;28;20273;-67
2021/09/09 07:09:25;;;;;;;997.07;836.43;;;26.20;45.00;;;;;;5047322;28;20183;-68
2021/09/09 07:11:52;;;;;;;995.53;834.07;;;26.20;45.10;;;;;;5050171;28;20661;-69
2021/09/09 07:14:20;;;;;;;993.20;844.13;;;26.20;45.30;;;;;;5054593;28;20208;-68
2021/09/09 07:16:47;;;;;;;995.27;841.00;;;26.30;44.90;;;;;;5054198;28;20180;-69
2021/09/09 07:19:15;;;;;;;990.27;827.70;;;26.20;45.40;;;;;;5050320;28;20207;-68
2021/09/09 07:21:49;;;;;;;991.53;831.43;;;25.90;45.60;;;;;;5035785;28;20188;-70
2021/09/09 07:24:20;;;;;;;993.60;833.33;;;25.80;45.90;;;;;;5041798;28;20176;-67
2021/09/09 07:26:48;;;;;;;998.30;840.57;;;25.60;46.60;;;;;;5054768;28;20292;-68
2021/09/09 07:29:16;;;;;;;987.47;822.83;;;25.50;46.90;;;;;;5053401;28;20191;-66
2021/09/09 07:31:44;;;;;;;1003.43;857.13;;;25.40;47.10;;;;;;5053407;28;20226;-67
2021/09/09 07:34:12;;;;;;;991.67;835.93;;;25.20;47.40;;;;;;5054304;28;20257;-67
2021/09/09 07:36:40;;;;;;;992.50;826.77;;;25.00;47.50;;;;;;5053520;28;20643;-70
2021/09/09 07:39:07;;;;;;;993.77;831.93;;;24.90;47.30;;;;;;5052777;28;20646;-69
2021/09/09 07:41:35;;;;;;;985.23;812.07;;;24.80;48.00;;;;;;5051391;28;20188;-68
2021/09/09 07:44:03;;;;;;;983.23;802.40;;;24.70;47.80;;;;;;5052179;28;20187;-68
2021/09/09 07:46:30;;;;;;;979.53;796.10;;;24.60;47.70;;;;;;5051772;28;20227;-69
2021/09/09 07:48:58;;;;;;;978.63;800.80;;;24.50;48.10;;;;;;5053408;28;20180;-69
2021/09/09 07:51:25;;;;;;;972.30;790.20;;;24.40;48.60;;;;;;5048051;28;20192;-69
2021/09/09 07:53:53;;;;;;;979.83;803.07;;;24.30;48.20;;;;;;5048429;28;20179;-71
2021/09/09 07:56:20;;;;;;;980.83;807.63;;;24.20;48.30;;;;;;5052421;28;20184;-69
2021/09/09 07:58:53;;;;;;;979.47;799.13;;;24.20;48.40;;;;;;5053945;28;20190;-69
2021/09/09 08:01:21;;;;;;;971.13;782.23;;;24.10;48.50;;;;;;5053447;28;20785;-69
2021/09/09 08:03:49;;;;;;;975.43;793.07;;;24.00;48.70;;;;;;5046628;28;20575;-66
2021/09/09 08:06:16;;;;;;;972.70;783.23;;;23.90;48.80;;;;;;5053796;28;20212;-67
2021/09/09 08:08:44;;;;;;;976.73;791.50;;;23.80;48.80;;;;;;5050199;28;20176;-70
2021/09/09 08:11:11;;;;;;;966.60;768.97;;;23.70;49.10;;;;;;5041411;28;20642;-69
2021/09/09 08:13:39;;;;;;;968.47;773.07;;;23.60;49.30;;;;;;5053237;28;20183;-68
2021/09/09 08:16:07;;;;;;;979.80;797.40;;;23.60;49.30;;;;;;5053498;28;20180;-68
2021/09/09 08:18:34;;;;;;;971.87;770.30;;;23.50;49.60;;;;;;5052391;28;20203;-69
2021/09/09 08:21:02;;;;;;;961.90;760.27;;;23.40;49.70;;;;;;5053503;28;20226;-67
2021/09/09 08:23:29;;;;;;;973.10;770.37;;;23.30;49.90;;;;;;5049514;28;20866;-67
2021/09/09 08:25:59;;;;;;;970.90;774.83;;;23.10;50.10;;;;;;5050657;28;20207;-69
2021/09/09 08:28:27;;;;;;;970.67;770.00;;;23.00;50.90;;;;;;5051418;28;20187;-67
2021/09/09 08:30:55;;;;;;;972.70;774.77;;;22.90;50.40;;;;;;5049917;28;20184;-67
2021/09/09 08:33:22;;;;;;;971.83;778.23;;;22.80;50.40;;;;;;5081160;28;20184;-68
2021/09/09 08:35:49;;;;;;;966.00;756.03;;;22.80;50.80;;;;;;5052413;28;20180;-68
2021/09/09 08:38:17;;;;;;;967.57;762.87;;;22.70;51.00;;;;;;5052680;28;20486;-67
2021/09/09 08:40:50;;;;;;;959.00;749.80;;;22.60;51.30;;;;;;5051763;28;20179;-69
2021/09/09 08:43:20;;;;;;;961.07;751.73;;;22.40;51.90;;;;;;5052716;28;20635;-68
2021/09/09 08:45:52;;;;;;;962.37;751.87;;;22.40;51.90;;;;;;5055176;28;20748;-68
2021/09/09 08:48:20;;;;;;;960.33;753.17;;;22.30;52.50;;;;;;5052930;28;20421;-68
2021/09/09 08:50:48;;;;;;;958.83;742.57;;;22.20;52.20;;;;;;5051817;28;20524;-68
2021/09/09 08:53:16;;;;;;;958.50;742.83;;;22.10;51.50;;;;;;5049926;28;20184;-67
2021/09/09 08:55:44;;;;;;;956.13;734.93;;;22.10;51.60;;;;;;5052754;28;20610;-67
2021/09/09 08:58:12;;;;;;;959.67;736.97;;;22.00;52.70;;;;;;5039247;28;20440;-67
2021/09/09 09:00:59;;;;;;;975.33;778.33;;;21.90;52.30;;;;;;5051673;28;20767;-68
2021/09/09 09:03:43;;;;;;;957.77;742.93;;;21.90;50.90;;;;;;5053302;28;20424;-69
2021/09/09 09:06:25;;;;;;;954.80;734.73;;;21.80;51.20;;;;;;5051272;28;20975;-68
2021/09/09 09:08:56;;;;;;;958.03;737.20;;;21.80;51.10;;;;;;5063479;28;20178;-70
2021/09/09 09:11:25;;;;;;;956.37;735.77;;;21.80;50.50;;;;;;5052384;28;20184;-68
2021/09/09 09:13:53;;;;;;;958.93;748.97;;;21.90;48.60;;;;;;5049165;28;20211;-70
2021/09/09 09:16:22;;;;;;;960.17;748.57;;;22.00;48.10;;;;;;5049647;28;20439;-69
2021/09/09 09:18:49;;;;;;;957.30;744.23;;;21.90;48.30;;;;;;5047909;28;20425;-69
2021/09/09 09:21:18;;;;;;;966.90;758.37;;;21.90;48.70;;;;;;5052501;28;20744;-69
2021/09/09 09:23:57;;;;;;;962.63;746.07;;;21.90;47.40;;;;;;5051592;28;20425;-70
2021/09/09 09:26:24;;;;;;;682.27;516.63;;;22.00;46.80;;;;;;5045081;28;20216;-68
2021/09/09 09:28:55;;;;;;;962.73;747.77;;;22.00;45.70;;;;;;5047626;28;20191;-69
2021/09/09 09:31:31;;;;;;;965.70;759.13;;;22.00;44.80;;;;;;5041224;28;20466;-70
2021/09/09 09:33:59;;;;;;;960.83;754.97;;;22.30;43.10;;;;;;5050485;28;20772;-67
2021/09/09 09:36:31;;;;;;;959.77;754.57;;;22.50;42.80;;;;;;5049803;28;20429;-70
2021/09/09 09:39:09;;;;;;;964.87;758.40;;;22.60;42.90;;;;;;5041104;28;20179;-71
2021/09/09 09:41:38;;;;;;;960.70;749.07;;;22.60;43.40;;;;;;5052559;28;20417;-68
2021/09/09 09:44:09;;;;;;;960.07;743.33;;;22.50;43.10;;;;;;5048594;28;20184;-69
2021/09/09 09:46:43;;;;;;;944.10;740.57;;;22.50;43.30;;;;;;5051699;28;20222;-67
2021/09/09 09:49:29;;;;;;;695.13;535.63;;;22.50;42.80;;;;;;5052171;28;20779;-68
2021/09/09 09:52:00;;;;;;;972.03;771.40;;;22.40;43.20;;;;;;5050659;28;20199;-68
2021/09/09 09:54:29;;;;;;;969.97;757.50;;;22.30;43.40;;;;;;5050151;28;20416;-67
2021/09/09 09:56:57;;;;;;;977.97;781.93;;;22.30;42.70;;;;;;5046076;28;20206;-67
2021/09/09 09:59:25;;;;;;;968.80;769.00;;;22.30;42.70;;;;;;5051924;28;20290;-67
2021/09/09 10:01:52;;;;;;;969.97;769.80;;;22.40;42.70;;;;;;5051040;28;20464;-71
2021/09/09 10:04:22;;;;;;;961.60;749.63;;;22.40;42.50;;;;;;5051527;28;20428;-68
2021/09/09 10:06:52;;;;;;;912.80;711.07;;;22.40;43.20;;;;;;5051146;28;20227;-71
2021/09/09 10:09:23;;;;;;;967.87;766.67;;;22.30;42.90;;;;;;5050823;28;20899;-66
2021/09/09 10:11:53;;;;;;;962.90;754.10;;;22.20;43.20;;;;;;5051617;28;20919;-68
2021/09/09 10:14:26;;;;;;;965.43;762.33;;;22.10;43.20;;;;;;5042436;28;20425;-67
2021/09/09 10:16:59;;;;;;;958.97;753.47;;;22.10;43.90;;;;;;5050267;28;20429;-69
2021/09/09 10:19:29;;;;;;;965.90;760.60;;;22.00;43.10;;;;;;5048280;28;20521;-67
2021/09/09 10:22:10;;;;;;;959.77;749.13;;;22.00;43.30;;;;;;5051384;28;20444;-68
2021/09/09 10:24:42;;;;;;;954.53;723.83;;;22.00;43.50;;;;;;5039027;28;20516;-68
2021/09/09 10:27:23;;;;;;;950.57;720.30;;;21.90;43.80;;;;;;5051102;28;21018;-68
2021/09/09 10:30:02;;;;;;;954.17;738.03;;;21.80;44.10;;;;;;5051677;28;20425;-68
2021/09/09 10:32:35;;;;;;;946.80;714.50;;;21.70;44.40;;;;;;5051406;28;20432;-68
2021/09/09 10:35:18;;;;;;;954.53;729.10;;;21.70;44.90;;;;;;5051903;28;20199;-69
2021/09/09 10:37:54;;;;;;;940.93;701.30;;;21.60;45.20;;;;;;5051876;28;20416;-67
2021/09/09 10:40:33;;;;;;;942.13;699.50;;;21.60;46.10;;;;;;5047391;28;20189;-67
2021/09/09 10:43:11;;;;;;;673.03;485.37;;;21.70;45.60;;;;;;5052396;28;20432;-68
2021/09/09 10:45:43;;;;;;;942.23;698.40;;;21.50;46.40;;;;;;5053126;28;20200;-67
2021/09/09 10:48:21;;;;;;;937.23;680.03;;;21.40;46.40;;;;;;5055970;28;20425;-68
2021/09/09 10:51:10;;;;;;;952.30;726.30;;;21.40;46.90;;;;;;5061891;28;20179;-68
2021/09/09 10:53:40;;;;;;;943.13;702.73;;;21.40;47.10;;;;;;5043627;28;20915;-69
2021/09/09 10:56:16;;;;;;;944.00;711.13;;;21.40;47.40;;;;;;5050003;28;20433;-69
2021/09/09 10:58:44;;;;;;;946.13;711.33;;;21.30;47.60;;;;;;5038416;28;21033;-68
2021/09/09 11:01:12;;;;;;;941.73;696.90;;;21.40;47.50;;;;;;5050880;28;20934;-67
2021/09/09 11:03:47;;;;;;;943.90;703.40;;;21.30;48.20;;;;;;5052491;28;20518;-67
2021/09/09 11:06:23;;;;;;;937.73;686.57;;;21.30;47.60;;;;;;5055361;28;20472;-68
2021/09/09 11:09:11;;;;;;;668.60;472.60;;;21.20;47.70;;;;;;5062592;28;20432;-66
2021/09/09 11:11:40;;;;;;;929.60;662.23;;;21.20;48.00;;;;;;5054729;28;20195;-66
2021/09/09 11:14:08;;;;;;;944.60;707.83;;;21.10;47.90;;;;;;5055316;28;20525;-65
2021/09/09 11:16:39;;;;;;;939.93;694.13;;;21.00;48.60;;;;;;5054329;28;20425;-68
2021/09/09 11:19:09;;;;;;;936.17;679.33;;;20.90;49.30;;;;;;5054559;28;20424;-68
2021/09/09 11:21:39;;;;;;;937.37;678.60;;;20.90;49.70;;;;;;5051139;28;20510;-68
2021/09/09 11:24:07;;;;;;;938.10;679.90;;;20.90;49.90;;;;;;5053370;28;20429;-67
2021/09/09 11:26:37;;;;;;;940.77;691.90;;;20.90;50.20;;;;;;5053190;28;20873;-68
2021/09/09 11:29:06;;;;;;;941.13;694.60;;;20.90;50.10;;;;;;5056317;28;20455;-68
2021/09/09 11:31:43;;;;;;;940.70;691.63;;;20.80;50.50;;;;;;5050578;28;20434;-67
2021/09/09 11:34:10;;;;;;;946.73;709.53;;;20.70;51.00;;;;;;5052377;28;20413;-68
2021/09/09 11:36:44;;;;;;;937.93;678.03;;;20.60;51.30;;;;;;5054515;28;20429;-68
2021/09/09 11:39:18;;;;;;;945.67;707.07;;;20.50;51.60;;;;;;5053104;28;20423;-67
2021/09/09 11:41:45;;;;;;;948.20;703.47;;;20.30;52.70;;;;;;5054768;28;20424;-67
2021/09/09 11:44:35;;;;;;;953.17;708.30;;;20.20;52.90;;;;;;5054932;28;20500;-68
2021/09/09 11:47:11;;;;;;;939.97;683.60;;;20.00;53.90;;;;;;5053488;28;20457;-68
2021/09/09 11:49:39;;;;;;;952.93;709.60;;;19.90;53.10;;;;;;5054561;28;20467;-68
2021/09/09 11:52:07;;;;;;;945.97;693.27;;;20.10;52.90;;;;;;5054115;28;20429;-67
2021/09/09 11:54:37;;;;;;;680.57;487.77;;;20.00;54.00;;;;;;5052596;28;20451;-68
2021/09/09 11:57:09;;;;;;;951.10;703.90;;;19.80;54.10;;;;;;5054581;28;20409;-68
2021/09/09 11:59:58;;;;;;;943.17;687.50;;;19.80;54.20;;;;;;5053735;28;20471;-68
2021/09/09 12:02:32;;;;;;;932.87;664.03;;;19.70;55.00;;;;;;5045120;28;20465;-68
2021/09/09 12:05:07;;;;;;;943.43;693.27;;;19.60;55.90;;;;;;5050007;28;20425;-68
2021/09/09 12:07:38;;;;;;;946.30;701.47;;;19.50;56.50;;;;;;5054488;28;20409;-68
2021/09/09 12:10:14;;;;;;;945.60;700.30;;;19.30;57.00;;;;;;5048920;28;20512;-67
2021/09/09 12:12:54;;;;;;;947.50;703.93;;;19.20;57.80;;;;;;5052584;28;20424;-67
2021/09/09 12:15:25;;;;;;;945.80;695.93;;;19.10;58.20;;;;;;5053186;28;20454;-67